Terminal Aerodrome Forecast
Issued by NWS Tampa Bay Area, FL

Home | Current Version | Previous Version | Text Only | Print | Product List | Glossary On
Versions: 1 2 3 4 5 6 7 8 9 10 11 12 13 14 15 16 17 18 19 20 21 22 23 24 25 26 27 28 29 30 31
000
FTUS42 KTBW 071743
TAFTPA
TAF
KTPA 071743Z 0718/0818 23008KT P6SM VCTS SCT040CB SCT100 BKN250
     FM080100 VRB05KT P6SM SCT030 SCT120 BKN250
     FM080300 09003KT P6SM SCT250
     FM081400 16006KT P6SM FEW020 SCT250=

USA.gov is the U.S. government's official web portal to all federal, state and local government web resources and services.